Martinsville, VA

3:24 PM EDT on April 26, 2015 (GMT -0400)
Reidsville | | Change Station
CLOSE
Current Station
Airport
Location: Reidsville,
Elevation: 692 ft
Nearby Weather Stations

Elev 692 ft 36.44 °N, 79.85 °W | Updated 9 minutes ago

Overcast
Overcast
51 °F
Feels Like 51 °F
N
6
Wind Variable Wind from North

Today
High -- | Low -- °F
--% Chance of Precip.
Yesterday
High -- | Low -- °F
Precip. -- in
6:31 AM 8:03 PM
First Quarter, 58% visible
Pressure 29.75 in
Visibility 10.0 miles
Clouds Mostly Cloudy 2200 ft
Overcast 2600 ft
Dew Point 45 °F
Humidity 79%
Rainfall 0.06 in
Snow Depth Not available.
UV 3 out of 12
Pollen 6.10 out of 12
Air Quality Not available.
Flu Activity Sporadic
METAR KSIF 261915Z AUTO 01005KT 10SM BKN022 OVC026 11/07 A2975 RMK AO2 T01060071

More Conditions Fewer Conditions

Pressure 29.75 in
Visibility 10.0 miles
Clouds Mostly Cloudy 2200 ft
Overcast 2600 ft
Dew Point 45 °F
Humidity 79%
Rainfall 0.06 in
Snow Depth Not available.
UV 3 out of 12
Pollen 6.10 out of 12
Air Quality Not available.
Flu Activity Sporadic
METAR KSIF 261915Z AUTO 01005KT 10SM BKN022 OVC026 11/07 A2975 RMK AO2 T01060071

More Conditions Fewer Conditions

The full scope of the disaster following a powerful 7.8-magnitude earthquake in Nepal may not come into view for days, but global charities are already sending emergency aid. Click to see how you can help.

10-Day Weather Forecast

Almanac

Astronomy

Apr. 26, 2015 Rise Set
Actual Time
Civil Twilight
Nautical Twilight
Astronomical Twilight
Moon
Length of Visible Light
Length of Day
Tomorrow will be .
, % of the Moon is Illuminated

Today's Extremes

State Highs State Lows

Community

WunderPhotos

Upload Photos

1,817,097 photos uploaded!

WunderBlogs® & News

Nearby

Air Quality

  Air Quality AQ Index Pollutant
Not available.

Snow Depth

Station Depth Elevation

Earthquake Activity

City Distance Mag. Time & Date
Minimum magnitude displayed is 2.5.

Coastal Water Temperatures

Place Temperature

Stations

Nearby Weather Stations

Station Location Temp. Windchill Dew Point Humidity Wind Precip. Elev Updated Type